Time;durP1;ratioP1;P1;durP2;ratioP2;P2;SDS_P1;SDS_P2;PMS_P1;PMS_P2;Temp;Humidity;BMP_temperature;BMP_pressure;BME280_temperature;BME280_humidity;BME280_pressure;Samples;Min_cycle;Max_cycle;Signal;HPM_P1;HPM_P2
2023/06/01 00:02:25;;;;;;;3.27;2.63;;;18.20;99.90;;;;;;6169784;23;20196;-96
2023/06/01 00:04:58;;;;;;;4.77;2.43;;;18.40;99.90;;;;;;6196915;23;20176;-94
2023/06/01 00:07:32;;;;;;;4.77;2.77;;;18.20;99.90;;;;;;6174867;23;20229;-96
2023/06/01 00:10:05;;;;;;;5.43;2.93;;;18.30;99.90;;;;;;6197587;23;20173;-96
2023/06/01 00:12:37;;;;;;;5.73;2.87;;;18.50;99.90;;;;;;6196488;23;20184;-95
2023/06/01 00:15:13;;;;;;;4.03;2.80;;;18.60;99.90;;;;;;6192957;23;20173;-95
2023/06/01 00:17:51;;;;;;;5.17;2.63;;;18.70;99.90;;;;;;6186471;23;20276;-93
2023/06/01 00:20:24;;;;;;;4.67;2.63;;;18.70;99.90;;;;;;6187675;23;20710;-90
2023/06/01 00:22:55;;;;;;;5.20;2.70;;;18.40;99.90;;;;;;6189464;23;20161;-90
2023/06/01 00:25:27;;;;;;;6.93;2.90;;;18.20;99.90;;;;;;6188788;23;20181;-92
2023/06/01 00:28:02;;;;;;;4.07;2.80;;;18.30;99.90;;;;;;6189960;23;20197;-93
2023/06/01 00:30:33;;;;;;;6.13;2.97;;;18.10;99.90;;;;;;6189700;23;20239;-92
2023/06/01 00:33:07;;;;;;;5.77;2.77;;;17.80;99.90;;;;;;6191544;23;20177;-93
2023/06/01 00:38:26;;;;;;;6.57;3.17;;;18.30;99.90;;;;;;6192019;23;20239;-93
2023/06/01 00:40:58;;;;;;;6.77;2.80;;;18.50;99.90;;;;;;6193141;23;20169;-90
2023/06/01 00:43:31;;;;;;;7.13;3.00;;;18.70;99.90;;;;;;6198575;23;20200;-96
2023/06/01 00:46:06;;;;;;;3.50;2.43;;;18.60;99.90;;;;;;6198797;23;20267;-94
2023/06/01 00:48:41;;;;;;;4.57;2.67;;;18.40;99.90;;;;;;6196826;23;20188;-95
2023/06/01 00:51:14;;;;;;;6.00;2.80;;;18.20;99.90;;;;;;6193213;23;20623;-88
2023/06/01 00:53:46;;;;;;;3.50;2.63;;;18.10;99.90;;;;;;6189404;23;20223;-89
2023/06/01 00:56:18;;;;;;;4.43;2.60;;;18.30;99.90;;;;;;6187886;23;20661;-89
2023/06/01 00:58:50;;;;;;;6.47;3.27;;;18.30;99.90;;;;;;6193550;23;20178;-88
2023/06/01 01:01:24;;;;;;;5.13;2.87;;;18.00;99.90;;;;;;6187376;23;20185;-88
2023/06/01 01:04:00;;;;;;;8.17;2.90;;;17.90;99.90;;;;;;6187242;23;20224;-87
2023/06/01 01:06:45;;;;;;;5.73;2.80;;;17.80;99.90;;;;;;6187062;23;20216;-88
2023/06/01 01:09:24;;;;;;;5.57;2.83;;;17.90;99.90;;;;;;6184879;23;20196;-88
2023/06/01 01:12:01;;;;;;;5.57;2.97;;;18.10;99.90;;;;;;6188859;23;20177;-89
2023/06/01 01:14:38;;;;;;;4.47;2.73;;;18.00;99.90;;;;;;6189762;23;20603;-88
2023/06/01 01:17:17;;;;;;;5.30;2.67;;;17.80;99.90;;;;;;6200646;23;20183;-88
2023/06/01 01:20:08;;;;;;;3.53;2.43;;;18.00;99.90;;;;;;6208594;23;20172;-90
2023/06/01 01:23:09;;;;;;;4.67;2.47;;;18.10;99.90;;;;;;6194359;23;20185;-89
2023/06/01 01:26:03;;;;;;;6.33;2.70;;;18.10;99.90;;;;;;6194038;23;20177;-96
2023/06/01 01:28:49;;;;;;;4.27;2.50;;;18.20;99.90;;;;;;6192851;23;20288;-96
2023/06/01 01:31:25;;;;;;;4.43;2.57;;;18.40;99.90;;;;;;6192113;23;20189;-96
2023/06/01 01:33:58;;;;;;;4.53;2.60;;;18.60;99.90;;;;;;6193652;23;20173;-96
2023/06/01 01:36:31;;;;;;;5.07;2.50;;;18.40;99.90;;;;;;6192015;23;20165;-96
2023/06/01 01:39:03;;;;;;;3.13;2.37;;;17.90;99.90;;;;;;6190326;23;20177;-96
2023/06/01 01:41:37;;;;;;;4.40;2.63;;;17.90;99.90;;;;;;6195227;23;20204;-96
2023/06/01 01:44:16;;;;;;;6.23;2.20;;;18.00;99.90;;;;;;6198494;23;20202;-96
2023/06/01 01:46:58;;;;;;;3.83;2.30;;;18.10;99.90;;;;;;6191777;23;20196;-96
2023/06/01 01:49:36;;;;;;;4.07;2.20;;;18.40;99.90;;;;;;6196158;23;20176;-96
2023/06/01 01:52:14;;;;;;;2.33;2.10;;;18.40;99.90;;;;;;6197744;23;20179;-96
2023/06/01 01:54:48;;;;;;;5.10;2.30;;;18.40;99.90;;;;;;6206650;23;20205;-96
2023/06/01 01:57:22;;;;;;;4.43;2.40;;;18.30;99.90;;;;;;6211248;23;20187;-95
2023/06/01 01:59:57;;;;;;;5.37;2.60;;;18.20;99.90;;;;;;6210354;23;20180;-96
2023/06/01 02:02:33;;;;;;;5.37;2.40;;;17.70;99.90;;;;;;6208963;23;20485;-96
2023/06/01 02:05:06;;;;;;;4.03;2.50;;;17.40;99.90;;;;;;6207878;23;20172;-96
2023/06/01 02:07:40;;;;;;;2.73;2.00;;;17.10;99.90;;;;;;6205329;23;20220;-96
2023/06/01 02:10:16;;;;;;;7.47;2.40;;;17.10;99.90;;;;;;6205622;23;20183;-96
2023/06/01 02:15:41;;;;;;;4.53;2.27;;;16.90;99.90;;;;;;6152477;23;20726;-96
2023/06/01 02:18:17;;;;;;;2.90;2.00;;;17.00;99.90;;;;;;6143085;23;20205;-96
2023/06/01 02:21:03;;;;;;;3.97;1.77;;;17.00;99.90;;;;;;6148521;23;20226;-96
2023/06/01 02:23:43;;;;;;;3.80;1.60;;;16.90;99.90;;;;;;6151948;23;20176;-96
2023/06/01 02:26:20;;;;;;;1.97;1.30;;;16.90;99.90;;;;;;6146302;23;20174;-96
2023/06/01 02:28:55;;;;;;;3.77;1.47;;;16.90;99.90;;;;;;6142836;23;20696;-96
2023/06/01 02:31:35;;;;;;;3.33;1.30;;;16.80;99.90;;;;;;6140061;23;20210;-95
2023/06/01 02:34:13;;;;;;;2.93;1.40;;;16.70;99.90;;;;;;6117775;23;20258;-96
2023/06/01 02:36:48;;;;;;;3.30;1.53;;;16.70;99.90;;;;;;6116395;23;20237;-96
2023/06/01 02:39:22;;;;;;;3.13;1.30;;;16.70;99.90;;;;;;6139753;23;20182;-96
2023/06/01 02:41:56;;;;;;;7.63;1.50;;;16.60;99.90;;;;;;6138983;23;20206;-96
2023/06/01 02:44:30;;;;;;;2.23;1.20;;;16.50;99.90;;;;;;6137845;23;20178;-96
2023/06/01 02:47:06;;;;;;;3.00;1.30;;;16.40;99.90;;;;;;6135794;23;20177;-96
2023/06/01 02:49:38;;;;;;;3.63;1.17;;;16.30;99.90;;;;;;6134994;23;20209;-96
2023/06/01 02:52:10;;;;;;;3.13;1.30;;;16.40;99.90;;;;;;6136647;23;20200;-96
2023/06/01 02:54:41;;;;;;;2.23;1.43;;;16.30;99.90;;;;;;6111328;23;20485;-96
2023/06/01 02:57:15;;;;;;;3.53;1.00;;;16.30;99.90;;;;;;6136933;23;20167;-96
2023/06/01 02:59:47;;;;;;;2.70;1.37;;;16.20;99.90;;;;;;6138084;23;20167;-96
2023/06/01 03:02:21;;;;;;;2.67;1.13;;;16.10;99.90;;;;;;6113249;23;20176;-96
2023/06/01 03:04:53;;;;;;;1.67;1.03;;;16.10;99.90;;;;;;6128033;23;20261;-90
2023/06/01 03:07:25;;;;;;;1.77;0.93;;;16.10;99.90;;;;;;6105472;23;20733;-90
2023/06/01 03:09:56;;;;;;;3.10;1.10;;;16.00;99.90;;;;;;6127867;23;20184;-89
2023/06/01 03:12:27;;;;;;;4.40;1.20;;;15.90;99.90;;;;;;6128323;23;20273;-89
2023/06/01 03:14:59;;;;;;;3.93;1.30;;;15.70;99.90;;;;;;6127678;23;20201;-88
2023/06/01 03:17:33;;;;;;;3.07;1.13;;;15.60;99.90;;;;;;6128742;23;20653;-88
2023/06/01 03:20:14;;;;;;;4.47;1.27;;;15.50;99.90;;;;;;6127864;23;20178;-89
2023/06/01 03:22:46;;;;;;;2.53;1.10;;;15.50;99.90;;;;;;6081711;23;20198;-90
2023/06/01 03:25:18;;;;;;;5.73;1.40;;;15.40;99.90;;;;;;6129511;23;20167;-89
2023/06/01 03:27:49;;;;;;;4.23;1.20;;;15.20;99.90;;;;;;6127569;23;20222;-91
2023/06/01 03:30:21;;;;;;;3.47;1.00;;;15.10;99.90;;;;;;6130097;23;20182;-89
2023/06/01 03:32:54;;;;;;;3.13;1.70;;;15.10;99.90;;;;;;6148520;23;20186;-90
2023/06/01 03:35:27;;;;;;;3.77;1.03;;;15.10;99.90;;;;;;6146305;23;20178;-89
2023/06/01 03:37:59;;;;;;;2.87;1.30;;;15.10;99.90;;;;;;6134294;23;20674;-88
2023/06/01 03:40:31;;;;;;;1.97;1.20;;;15.00;99.90;;;;;;6131781;23;20209;-88
2023/06/01 03:43:03;;;;;;;2.27;1.33;;;14.90;99.90;;;;;;6105275;23;20296;-88
2023/06/01 03:45:34;;;;;;;3.93;1.23;;;14.80;99.90;;;;;;6130241;23;20210;-89
2023/06/01 03:48:08;;;;;;;3.37;1.30;;;14.80;99.90;;;;;;6127052;23;20541;-91
2023/06/01 03:50:40;;;;;;;3.30;1.23;;;14.70;99.90;;;;;;6127924;23;20182;-89
2023/06/01 03:53:12;;;;;;;5.57;1.70;;;14.60;99.90;;;;;;6102468;23;20187;-90
2023/06/01 03:55:43;;;;;;;2.53;1.13;;;14.60;99.90;;;;;;6127679;23;20173;-89
2023/06/01 03:58:15;;;;;;;2.97;1.20;;;14.40;99.90;;;;;;6126064;23;20246;-89
2023/06/01 04:00:46;;;;;;;4.33;1.17;;;14.30;99.90;;;;;;6126294;23;20178;-89
2023/06/01 04:03:24;;;;;;;4.43;1.20;;;14.20;99.90;;;;;;6127281;23;20194;-89
2023/06/01 04:05:59;;;;;;;5.47;1.33;;;14.00;99.90;;;;;;6126475;23;20250;-90
2023/06/01 04:08:31;;;;;;;5.30;1.80;;;13.90;99.90;;;;;;6125499;23;20216;-89
2023/06/01 04:11:02;;;;;;;3.27;1.23;;;13.80;99.90;;;;;;6126792;23;20174;-89
2023/06/01 04:13:33;;;;;;;3.33;1.23;;;13.70;99.90;;;;;;6122496;23;20281;-89
2023/06/01 04:16:06;;;;;;;5.67;1.70;;;13.70;99.90;;;;;;6123819;23;20269;-89
2023/06/01 04:18:41;;;;;;;5.20;1.57;;;13.60;99.90;;;;;;6098638;23;20177;-89
2023/06/01 04:21:12;;;;;;;3.90;1.40;;;13.50;99.90;;;;;;6126798;23;20528;-89
2023/06/01 04:23:44;;;;;;;5.10;1.60;;;13.30;99.90;;;;;;6126562;23;20249;-89
2023/06/01 04:26:15;;;;;;;4.23;1.33;;;13.30;99.90;;;;;;6126564;23;20245;-89
2023/06/01 04:28:48;;;;;;;3.13;1.03;;;13.20;99.90;;;;;;6125859;23;20238;-90
2023/06/01 04:31:19;;;;;;;3.93;1.30;;;13.20;99.90;;;;;;6127123;23;20174;-89
2023/06/01 04:33:56;;;;;;;4.07;1.30;;;13.10;99.90;;;;;;6127731;23;20645;-90
2023/06/01 04:36:29;;;;;;;4.77;1.40;;;12.90;99.90;;;;;;6125775;23;20686;-89
2023/06/01 04:39:05;;;;;;;4.20;1.60;;;12.90;99.90;;;;;;6126467;23;20320;-89
2023/06/01 04:41:39;;;;;;;4.00;0.97;;;12.80;99.90;;;;;;6104444;23;20163;-90
2023/06/01 04:44:15;;;;;;;2.67;1.37;;;12.80;99.90;;;;;;6129829;23;20173;-88
2023/06/01 04:46:49;;;;;;;5.13;1.47;;;12.70;99.90;;;;;;6133849;23;20201;-89
2023/06/01 04:49:25;;;;;;;4.33;1.30;;;12.70;99.90;;;;;;6128393;23;20232;-91
2023/06/01 04:51:57;;;;;;;4.20;2.00;;;12.50;99.90;;;;;;6126902;23;20174;-89
2023/06/01 04:54:29;;;;;;;6.07;1.47;;;12.50;99.90;;;;;;6127097;23;20180;-90
2023/06/01 04:57:01;;;;;;;4.57;1.60;;;12.50;99.90;;;;;;6078261;23;20175;-90
2023/06/01 04:59:34;;;;;;;6.00;1.70;;;12.40;99.90;;;;;;6126281;23;20183;-89
2023/06/01 05:02:06;;;;;;;3.93;1.23;;;12.40;99.90;;;;;;6128519;23;20186;-89
2023/06/01 05:04:40;;;;;;;2.23;1.50;;;12.30;99.90;;;;;;6127242;23;20719;-89
2023/06/01 05:07:11;;;;;;;4.93;1.40;;;12.20;99.90;;;;;;6126986;23;20198;-89
2023/06/01 05:09:43;;;;;;;2.67;1.70;;;12.20;99.90;;;;;;6126045;23;20210;-89
2023/06/01 05:12:15;;;;;;;3.20;1.50;;;12.20;99.90;;;;;;6126661;23;20183;-89
2023/06/01 05:14:49;;;;;;;3.17;1.17;;;12.10;99.90;;;;;;6126717;23;20185;-90
2023/06/01 05:17:21;;;;;;;3.77;1.40;;;12.00;99.90;;;;;;6127155;23;20167;-88
2023/06/01 05:19:56;;;;;;;5.00;1.43;;;12.00;99.90;;;;;;6126536;23;20202;-89
2023/06/01 05:22:28;;;;;;;4.10;1.20;;;12.00;99.90;;;;;;6127778;23;20241;-91
2023/06/01 05:25:00;;;;;;;5.53;1.73;;;11.90;99.90;;;;;;6126682;23;20227;-89
2023/06/01 05:27:32;;;;;;;6.37;1.50;;;11.80;99.90;;;;;;6102051;23;20227;-89
2023/06/01 05:30:03;;;;;;;8.80;1.50;;;11.70;99.90;;;;;;6101588;23;20606;-89
2023/06/01 05:32:35;;;;;;;4.57;1.33;;;11.70;99.90;;;;;;6127919;23;20198;-89
2023/06/01 05:35:10;;;;;;;6.00;1.60;;;11.70;99.90;;;;;;6127579;23;20201;-89
2023/06/01 05:37:42;;;;;;;5.33;1.30;;;11.60;99.90;;;;;;6130406;23;20197;-94
2023/06/01 05:40:16;;;;;;;2.67;1.20;;;11.60;99.90;;;;;;6126256;23;20176;-90
2023/06/01 05:42:47;;;;;;;6.93;1.83;;;11.60;99.90;;;;;;6134472;23;20241;-90
2023/06/01 05:45:19;;;;;;;5.47;1.37;;;11.50;99.90;;;;;;6132038;23;20186;-89
2023/06/01 05:47:51;;;;;;;3.47;1.20;;;11.50;99.90;;;;;;6125760;23;20171;-90
2023/06/01 05:50:25;;;;;;;4.90;1.30;;;11.40;99.90;;;;;;6124992;23;20253;-89
2023/06/01 05:52:57;;;;;;;4.00;1.30;;;11.40;99.90;;;;;;6125966;23;20249;-92
2023/06/01 05:55:29;;;;;;;4.43;1.50;;;11.40;99.90;;;;;;6101964;23;20494;-90
2023/06/01 05:58:02;;;;;;;5.00;1.40;;;11.30;99.90;;;;;;6126144;23;20179;-89
2023/06/01 06:00:36;;;;;;;3.63;1.40;;;11.40;99.90;;;;;;6126674;23;20206;-88
2023/06/01 06:03:08;;;;;;;6.00;1.30;;;11.30;99.90;;;;;;6127036;23;20209;-89
2023/06/01 06:05:41;;;;;;;5.93;1.63;;;11.30;99.90;;;;;;6126425;23;20196;-89
2023/06/01 06:08:13;;;;;;;5.10;1.10;;;11.20;99.90;;;;;;6125931;23;20178;-89
2023/06/01 06:10:44;;;;;;;3.53;1.37;;;11.20;99.90;;;;;;6126304;23;20722;-89
2023/06/01 06:13:17;;;;;;;7.00;1.50;;;11.30;99.90;;;;;;6126685;23;20479;-89
2023/06/01 06:15:49;;;;;;;4.37;1.30;;;11.20;99.90;;;;;;6125854;23;20224;-89
2023/06/01 06:18:21;;;;;;;4.10;1.30;;;11.20;99.90;;;;;;6125832;23;20510;-89
2023/06/01 06:20:54;;;;;;;2.70;1.33;;;11.10;99.90;;;;;;6126478;23;20539;-89
2023/06/01 06:23:27;;;;;;;3.90;1.27;;;11.10;99.90;;;;;;6126596;23;20186;-88
2023/06/01 06:25:58;;;;;;;4.83;1.20;;;11.00;99.90;;;;;;6126074;23;20637;-89
2023/06/01 06:28:31;;;;;;;4.33;1.47;;;11.00;99.90;;;;;;6101381;23;20186;-90
2023/06/01 06:31:03;;;;;;;4.40;1.57;;;11.00;99.90;;;;;;6126530;23;20217;-89
2023/06/01 06:33:34;;;;;;;5.17;1.30;;;10.90;99.90;;;;;;6126432;23;20174;-89
2023/06/01 06:36:09;;;;;;;5.57;1.40;;;10.90;99.90;;;;;;6127332;23;20313;-89
2023/06/01 06:38:40;;;;;;;7.50;1.70;;;10.90;99.90;;;;;;6125870;23;20179;-88
2023/06/01 06:41:12;;;;;;;5.70;1.40;;;10.80;99.90;;;;;;6127124;23;20197;-89
2023/06/01 06:43:46;;;;;;;3.43;1.27;;;10.80;99.90;;;;;;6127475;23;20170;-88
2023/06/01 06:46:17;;;;;;;4.60;1.40;;;10.80;99.90;;;;;;6126757;23;20257;-90
2023/06/01 06:48:49;;;;;;;5.07;1.50;;;10.70;99.90;;;;;;6128548;23;20233;-88
2023/06/01 06:51:22;;;;;;;7.23;1.63;;;10.60;99.90;;;;;;6131369;23;20210;-90
2023/06/01 06:53:54;;;;;;;3.57;1.33;;;10.60;99.90;;;;;;6129300;23;20193;-89
2023/06/01 06:56:26;;;;;;;5.43;1.30;;;10.70;99.90;;;;;;6130981;23;20246;-88
2023/06/01 06:58:58;;;;;;;6.00;1.50;;;10.70;99.90;;;;;;6131749;23;20194;-90
2023/06/01 07:01:37;;;;;;;3.33;1.30;;;10.60;99.90;;;;;;6110078;23;20182;-88
2023/06/01 07:04:11;;;;;;;3.33;1.47;;;10.60;99.90;;;;;;6137643;23;20174;-89
2023/06/01 07:06:45;;;;;;;3.93;1.30;;;10.60;99.90;;;;;;6141964;23;20186;-89
2023/06/01 07:09:17;;;;;;;5.33;1.53;;;10.50;99.90;;;;;;6136219;23;20213;-88
2023/06/01 07:11:49;;;;;;;5.50;1.57;;;10.50;99.90;;;;;;6103994;23;20851;-89
2023/06/01 07:14:21;;;;;;;5.07;1.23;;;10.50;99.90;;;;;;6127971;23;20261;-89
2023/06/01 07:16:52;;;;;;;5.43;1.47;;;10.50;99.90;;;;;;6103473;23;20174;-88
2023/06/01 07:19:23;;;;;;;6.63;1.30;;;10.30;99.90;;;;;;6125934;23;20641;-88
2023/06/01 07:21:57;;;;;;;4.73;1.90;;;10.30;99.90;;;;;;6127579;23;20183;-89
2023/06/01 07:24:29;;;;;;;5.60;1.43;;;10.30;99.90;;;;;;6128116;23;20555;-89
2023/06/01 07:27:00;;;;;;;4.97;1.30;;;10.30;99.90;;;;;;6129745;23;20177;-88
2023/06/01 07:29:32;;;;;;;2.63;1.30;;;10.20;99.90;;;;;;6129206;23;20181;-89
2023/06/01 07:32:03;;;;;;;3.63;1.53;;;10.30;99.90;;;;;;6141503;23;20213;-89
2023/06/01 07:34:36;;;;;;;6.37;1.30;;;10.30;99.90;;;;;;6146927;23;20238;-89
2023/06/01 07:37:09;;;;;;;3.47;1.40;;;10.20;99.90;;;;;;6147284;23;20171;-89
2023/06/01 07:39:47;;;;;;;5.37;1.97;;;10.20;99.90;;;;;;6134559;23;20170;-89
2023/06/01 07:42:19;;;;;;;6.20;1.50;;;10.10;99.90;;;;;;6129299;23;20491;-89
2023/06/01 07:44:52;;;;;;;5.00;1.40;;;10.10;99.90;;;;;;6137051;23;20166;-89
2023/06/01 07:47:25;;;;;;;4.83;1.57;;;10.10;99.90;;;;;;6143410;23;20186;-89
2023/06/01 07:49:57;;;;;;;6.73;2.10;;;10.00;99.90;;;;;;6138665;23;20195;-88
2023/06/01 07:52:30;;;;;;;6.63;1.80;;;10.10;99.90;;;;;;6131714;23;20174;-88
2023/06/01 07:55:03;;;;;;;4.80;2.17;;;10.10;99.90;;;;;;6105473;23;20170;-88
2023/06/01 07:57:34;;;;;;;5.57;1.50;;;10.00;99.90;;;;;;6129492;23;20198;-88
2023/06/01 08:00:11;;;;;;;6.03;1.90;;;10.00;99.90;;;;;;6128461;23;20226;-89
2023/06/01 08:02:42;;;;;;;8.90;1.73;;;10.10;99.90;;;;;;6128919;23;20182;-89
2023/06/01 08:05:17;;;;;;;6.47;1.60;;;10.00;99.90;;;;;;6128913;23;20170;-89
2023/06/01 08:07:51;;;;;;;3.73;1.80;;;9.90;99.90;;;;;;6126540;23;20181;-89
2023/06/01 08:10:22;;;;;;;3.57;1.30;;;9.90;99.90;;;;;;6128454;23;20202;-89
2023/06/01 08:12:55;;;;;;;5.03;1.57;;;9.90;99.90;;;;;;6128844;23;20677;-90
2023/06/01 08:15:29;;;;;;;4.53;1.77;;;9.90;99.90;;;;;;6127970;23;20194;-88
2023/06/01 08:18:00;;;;;;;5.97;1.93;;;9.90;99.90;;;;;;6126394;23;20166;-89
2023/06/01 08:20:33;;;;;;;4.27;1.60;;;9.80;99.90;;;;;;6127141;23;20182;-89
2023/06/01 08:23:06;;;;;;;5.90;1.60;;;9.80;99.90;;;;;;6127832;23;20246;-89
2023/06/01 08:25:40;;;;;;;5.33;1.67;;;9.80;99.90;;;;;;6128594;23;20182;-90
2023/06/01 08:28:11;;;;;;;6.10;1.67;;;9.80;99.90;;;;;;6101131;23;20178;-87
2023/06/01 08:30:43;;;;;;;8.43;2.00;;;9.80;99.90;;;;;;6128323;23;20281;-90
2023/06/01 08:33:15;;;;;;;6.53;1.70;;;9.80;99.90;;;;;;6128190;23;20655;-90
2023/06/01 08:35:47;;;;;;;6.03;2.10;;;9.70;99.90;;;;;;6127714;23;20175;-88
2023/06/01 08:38:23;;;;;;;9.97;1.87;;;9.50;99.90;;;;;;6125920;23;20221;-89
2023/06/01 08:40:55;;;;;;;6.13;1.43;;;9.60;99.90;;;;;;6126772;23;20171;-90
2023/06/01 08:43:33;;;;;;;9.13;1.80;;;9.60;99.90;;;;;;6127677;23;20664;-89
2023/06/01 08:46:04;;;;;;;3.73;1.30;;;9.60;99.90;;;;;;6127232;23;20733;-87
2023/06/01 08:48:36;;;;;;;3.10;1.50;;;9.50;99.90;;;;;;6125558;23;20185;-89
2023/06/01 08:51:10;;;;;;;5.73;1.40;;;9.50;99.90;;;;;;6124356;23;20294;-89
2023/06/01 08:53:44;;;;;;;4.97;1.40;;;9.50;99.90;;;;;;6125662;23;20183;-89
2023/06/01 08:56:16;;;;;;;6.80;1.30;;;9.50;99.90;;;;;;6127442;23;20170;-89
2023/06/01 08:58:50;;;;;;;5.73;1.37;;;9.50;99.90;;;;;;6125577;23;20185;-89
2023/06/01 09:01:23;;;;;;;6.40;1.80;;;9.50;99.90;;;;;;6127349;23;20202;-89
2023/06/01 09:03:55;;;;;;;9.67;1.73;;;9.40;99.90;;;;;;6127023;23;20249;-90
2023/06/01 09:06:26;;;;;;;4.97;1.40;;;9.40;99.90;;;;;;6126942;23;20245;-89
2023/06/01 09:09:00;;;;;;;8.00;1.80;;;9.40;99.90;;;;;;6125728;23;20178;-90
2023/06/01 09:11:32;;;;;;;5.17;1.50;;;9.40;99.90;;;;;;6126586;23;20234;-89
2023/06/01 09:14:04;;;;;;;3.80;1.30;;;9.40;99.90;;;;;;6125946;23;20178;-88
2023/06/01 09:16:39;;;;;;;5.13;1.33;;;9.30;99.90;;;;;;6127088;23;20638;-88
2023/06/01 09:19:10;;;;;;;5.70;1.63;;;9.20;99.90;;;;;;6126345;23;20182;-89
2023/06/01 09:21:43;;;;;;;3.57;1.63;;;9.20;99.90;;;;;;6126732;23;20179;-89
2023/06/01 09:24:25;;;;;;;5.37;1.57;;;9.20;99.90;;;;;;6101883;23;20866;-88
2023/06/01 09:27:01;;;;;;;5.93;1.40;;;9.10;99.90;;;;;;6126017;23;20270;-89
2023/06/01 09:29:33;;;;;;;4.70;1.50;;;9.10;99.90;;;;;;6125570;23;20184;-89
2023/06/01 09:32:05;;;;;;;5.13;1.43;;;9.20;99.90;;;;;;6101231;23;20222;-88
2023/06/01 09:34:47;;;;;;;5.77;1.40;;;9.10;99.90;;;;;;6126965;23;20170;-88
2023/06/01 09:37:18;;;;;;;5.20;1.60;;;9.10;99.90;;;;;;6126912;23;20171;-88
2023/06/01 09:39:53;;;;;;;5.10;1.87;;;9.10;99.90;;;;;;6126378;23;20209;-88
2023/06/01 09:42:34;;;;;;;8.00;1.50;;;9.10;99.90;;;;;;6126194;23;20271;-88
2023/06/01 09:45:20;;;;;;;5.00;1.37;;;9.10;99.90;;;;;;6127556;23;20182;-88
2023/06/01 09:47:54;;;;;;;3.27;1.30;;;9.10;99.90;;;;;;6127368;23;20542;-88
2023/06/01 09:50:36;;;;;;;6.47;1.70;;;9.10;99.90;;;;;;6144235;23;20246;-89
2023/06/01 09:53:08;;;;;;;3.83;1.33;;;9.10;99.90;;;;;;6150638;23;20249;-90
2023/06/01 09:56:02;;;;;;;4.87;1.27;;;9.10;99.90;;;;;;6142738;23;20209;-89
2023/06/01 09:58:39;;;;;;;7.03;1.67;;;9.10;99.90;;;;;;6128023;23;20209;-89
2023/06/01 10:01:12;;;;;;;7.47;1.30;;;9.10;99.90;;;;;;6127240;23;20246;-89
2023/06/01 10:03:44;;;;;;;2.83;1.30;;;9.10;99.90;;;;;;6127007;23;20629;-88
2023/06/01 10:06:17;;;;;;;3.90;1.43;;;9.10;99.90;;;;;;6127014;23;20177;-89
2023/06/01 10:08:51;;;;;;;4.53;1.30;;;9.10;99.90;;;;;;6125737;23;20183;-88
2023/06/01 10:11:26;;;;;;;6.80;1.37;;;9.00;99.90;;;;;;6126145;23;20285;-88
2023/06/01 10:14:00;;;;;;;3.93;1.27;;;9.00;99.90;;;;;;6126083;23;20186;-87
2023/06/01 10:16:31;;;;;;;5.47;1.30;;;9.00;99.90;;;;;;6127298;23;20169;-89
2023/06/01 10:19:04;;;;;;;6.30;1.57;;;9.00;99.90;;;;;;6125545;23;20506;-88
2023/06/01 10:21:37;;;;;;;5.77;1.57;;;9.00;99.90;;;;;;6127674;23;20587;-88
2023/06/01 10:24:11;;;;;;;4.17;1.40;;;9.00;99.90;;;;;;6127291;23;20648;-88
2023/06/01 10:27:01;;;;;;;5.87;1.53;;;9.00;99.90;;;;;;6127621;23;20174;-89
2023/06/01 10:29:33;;;;;;;4.07;1.63;;;8.90;99.90;;;;;;6127589;23;20625;-87
2023/06/01 10:32:05;;;;;;;4.43;1.60;;;8.80;99.90;;;;;;6103473;23;20270;-89
2023/06/01 10:34:42;;;;;;;4.13;1.53;;;8.80;99.90;;;;;;6128704;23;20178;-88
2023/06/01 10:37:15;;;;;;;4.80;1.83;;;8.80;99.90;;;;;;6128017;23;20178;-89
2023/06/01 10:39:47;;;;;;;6.50;1.37;;;8.70;99.90;;;;;;6128074;23;20187;-88
2023/06/01 10:42:42;;;;;;;3.23;1.30;;;8.70;99.90;;;;;;6127641;23;20418;-89
2023/06/01 10:45:37;;;;;;;6.33;1.40;;;8.70;99.90;;;;;;6127791;23;20178;-90
2023/06/01 10:48:10;;;;;;;4.83;1.27;;;8.70;99.90;;;;;;6126930;23;20167;-88
2023/06/01 10:50:43;;;;;;;6.30;1.50;;;8.60;99.90;;;;;;6128085;23;20167;-92
2023/06/01 10:53:29;;;;;;;3.10;1.40;;;8.60;99.90;;;;;;6128179;23;20307;-88
2023/06/01 10:56:26;;;;;;;5.53;1.57;;;8.60;99.90;;;;;;6128214;23;20617;-87
2023/06/01 10:59:26;;;;;;;5.57;1.60;;;8.60;99.90;;;;;;6103291;23;20644;-88
2023/06/01 11:02:06;;;;;;;3.40;1.40;;;8.60;99.90;;;;;;6127342;23;20515;-89
2023/06/01 11:04:39;;;;;;;3.03;1.40;;;8.60;99.90;;;;;;6128177;23;20541;-88
2023/06/01 11:07:41;;;;;;;4.73;1.43;;;8.60;99.90;;;;;;6127556;23;20182;-89
2023/06/01 11:10:13;;;;;;;5.20;1.50;;;8.60;99.90;;;;;;6067459;23;20179;-89
2023/06/01 11:13:17;;;;;;;3.57;1.40;;;8.60;99.90;;;;;;6117144;23;20206;-90
2023/06/01 11:16:33;;;;;;;3.50;1.30;;;8.50;99.90;;;;;;6127625;23;20193;-89
2023/06/01 11:19:06;;;;;;;5.67;1.40;;;8.50;99.90;;;;;;6066964;23;20235;-89
2023/06/01 11:21:42;;;;;;;5.83;1.50;;;8.50;99.90;;;;;;6123681;23;20238;-90
2023/06/01 11:24:16;;;;;;;5.53;1.67;;;8.40;99.90;;;;;;6128890;23;20234;-87
2023/06/01 11:26:49;;;;;;;4.60;1.60;;;8.40;99.90;;;;;;6128159;23;20198;-88
2023/06/01 11:29:21;;;;;;;5.77;1.67;;;8.40;99.90;;;;;;6126966;23;20194;-88
2023/06/01 11:31:56;;;;;;;3.17;1.17;;;8.40;99.90;;;;;;6127576;23;20202;-88
2023/06/01 11:34:37;;;;;;;5.97;1.67;;;8.40;99.90;;;;;;6127454;23;20178;-89
2023/06/01 11:37:14;;;;;;;2.73;1.03;;;8.40;99.90;;;;;;6127749;23;20175;-88
2023/06/01 11:39:47;;;;;;;4.90;1.37;;;8.40;99.90;;;;;;6101475;23;20613;-88
2023/06/01 11:42:20;;;;;;;5.83;1.50;;;8.30;99.90;;;;;;6128164;23;20242;-89
2023/06/01 11:45:00;;;;;;;6.67;1.60;;;8.40;99.90;;;;;;6128681;23;20179;-88
2023/06/01 11:47:35;;;;;;;5.40;1.90;;;8.40;99.90;;;;;;6128514;23;20243;-88
2023/06/01 11:50:07;;;;;;;5.43;1.73;;;8.40;99.90;;;;;;6129924;23;20257;-88
2023/06/01 11:52:38;;;;;;;5.20;1.40;;;8.40;99.90;;;;;;6149365;23;20221;-88
2023/06/01 11:55:11;;;;;;;6.20;1.77;;;8.30;99.90;;;;;;6151247;23;20162;-89
2023/06/01 11:57:44;;;;;;;7.70;1.60;;;8.30;99.90;;;;;;6148552;23;20178;-90
2023/06/01 12:00:16;;;;;;;6.47;1.77;;;8.30;99.90;;;;;;6112555;23;20215;-88
2023/06/01 12:02:49;;;;;;;2.03;1.30;;;8.20;99.90;;;;;;6130482;23;20189;-89
2023/06/01 12:05:21;;;;;;;5.07;1.67;;;8.30;99.90;;;;;;6128713;23;20217;-88
2023/06/01 12:07:54;;;;;;;6.67;1.90;;;8.30;99.90;;;;;;6127672;23;20179;-89
2023/06/01 12:10:27;;;;;;;4.60;1.10;;;8.30;99.90;;;;;;6127667;23;20181;-88
2023/06/01 12:12:59;;;;;;;3.67;1.30;;;8.20;99.90;;;;;;6128965;23;20198;-88
2023/06/01 12:15:31;;;;;;;6.53;2.03;;;8.20;99.90;;;;;;6127900;23;20290;-89
2023/06/01 12:18:05;;;;;;;6.17;1.50;;;8.20;99.90;;;;;;6102856;23;20250;-88
2023/06/01 12:20:38;;;;;;;3.60;1.60;;;8.10;99.90;;;;;;6127507;23;20174;-88
2023/06/01 12:23:16;;;;;;;6.30;1.73;;;8.10;99.90;;;;;;6127684;23;20513;-89
2023/06/01 12:25:53;;;;;;;4.13;1.17;;;8.10;99.90;;;;;;6127847;23;20613;-88
2023/06/01 12:28:25;;;;;;;4.50;1.50;;;8.20;99.90;;;;;;6126726;23;20516;-89
2023/06/01 12:31:12;;;;;;;5.57;1.40;;;8.20;99.90;;;;;;6127844;23;20218;-89
2023/06/01 12:33:48;;;;;;;2.07;1.43;;;8.20;99.90;;;;;;6127782;23;20504;-89
2023/06/01 12:36:34;;;;;;;5.13;1.77;;;8.10;99.90;;;;;;6127272;23;20256;-88
2023/06/01 12:39:06;;;;;;;6.13;1.97;;;8.10;99.90;;;;;;6125905;23;20835;-88
2023/06/01 12:41:38;;;;;;;4.50;1.57;;;8.10;99.90;;;;;;6128559;23;20516;-89
2023/06/01 12:44:09;;;;;;;4.87;1.90;;;8.10;99.90;;;;;;6101637;23;20647;-88
2023/06/01 12:46:40;;;;;;;5.00;1.60;;;8.00;99.90;;;;;;6125989;23;20179;-88
2023/06/01 12:49:19;;;;;;;3.90;1.40;;;8.00;99.90;;;;;;6126600;23;20170;-88
2023/06/01 12:51:51;;;;;;;5.83;1.93;;;8.00;99.90;;;;;;6127495;23;20257;-89
2023/06/01 12:54:23;;;;;;;2.67;1.40;;;8.00;99.90;;;;;;6127341;23;20265;-88
2023/06/01 12:56:56;;;;;;;4.50;1.70;;;8.10;99.90;;;;;;6128122;23;20166;-88
2023/06/01 12:59:27;;;;;;;5.93;1.57;;;8.10;99.90;;;;;;6126479;23;20262;-88
2023/06/01 13:02:00;;;;;;;8.50;1.70;;;8.20;99.90;;;;;;6128145;23;20261;-89
2023/06/01 13:04:34;;;;;;;2.97;1.43;;;8.20;99.90;;;;;;6127434;23;20662;-88
2023/06/01 13:07:07;;;;;;;5.57;1.70;;;8.30;99.90;;;;;;6127584;23;20505;-88
2023/06/01 13:09:38;;;;;;;4.23;1.53;;;8.30;99.90;;;;;;6126460;23;20182;-89
2023/06/01 13:12:11;;;;;;;5.77;1.47;;;8.30;99.90;;;;;;6129080;23;20243;-87
2023/06/01 13:14:43;;;;;;;3.13;1.40;;;8.40;99.90;;;;;;6128882;23;20190;-88
2023/06/01 13:17:17;;;;;;;4.70;1.70;;;8.40;99.90;;;;;;6129484;23;20221;-87
2023/06/01 13:19:53;;;;;;;5.47;1.90;;;8.40;99.90;;;;;;6133509;23;20198;-88
2023/06/01 13:22:25;;;;;;;3.70;1.67;;;8.50;99.90;;;;;;6146452;23;20205;-88
2023/06/01 13:24:56;;;;;;;4.97;1.53;;;8.50;99.90;;;;;;6142727;23;20183;-88
2023/06/01 13:27:36;;;;;;;9.07;1.87;;;8.60;99.90;;;;;;6140791;23;20482;-88
2023/06/01 13:30:09;;;;;;;4.87;1.50;;;8.60;99.90;;;;;;6128287;23;20194;-88
2023/06/01 13:32:41;;;;;;;3.47;1.40;;;8.70;99.90;;;;;;6127274;23;20281;-90
2023/06/01 13:35:14;;;;;;;6.13;1.43;;;8.80;99.90;;;;;;6127650;23;20178;-88